Time;durP1;ratioP1;P1;durP2;ratioP2;P2;SDS_P1;SDS_P2;PMS_P1;PMS_P2;Temp;Humidity;BMP_temperature;BMP_pressure;BME280_temperature;BME280_humidity;BME280_pressure;Samples;Min_cycle;Max_cycle;Signal;HPM_P1;HPM_P2
2022/10/26 12:51:49;;;;;;;7.57;3.37;;;26.80;1.00;;;;;;5106079;27;21131;-78
2022/10/26 12:54:43;;;;;;;8.00;2.77;;;26.80;1.00;;;;;;5080403;28;20461;-78
2022/10/26 12:57:29;;;;;;;9.67;3.57;;;27.40;1.00;;;;;;5074597;28;20429;-78
2022/10/26 13:00:00;;;;;;;8.83;3.23;;;28.60;1.00;;;;;;5072872;28;20515;-79
2022/10/26 13:02:35;;;;;;;9.53;2.80;;;28.60;1.00;;;;;;5079650;28;21031;-79
2022/10/26 13:05:21;;;;;;;5.77;2.90;;;28.50;1.00;;;;;;5069889;28;20421;-78
2022/10/26 13:07:47;;;;;;;5.90;3.43;;;27.80;1.00;;;;;;5081882;28;20819;-78
2022/10/26 13:10:13;;;;;;;9.90;3.20;;;26.50;1.00;;;;;;5082705;28;20584;-77
2022/10/26 13:12:50;;;;;;;8.87;3.00;;;26.20;1.00;;;;;;5083228;28;20893;-78
2022/10/26 13:15:26;;;;;;;5.43;2.57;;;25.90;1.00;;;;;;5081618;28;20176;-77
2022/10/26 13:17:54;;;;;;;9.03;3.40;;;25.80;1.00;;;;;;5084038;28;20472;-77
2022/10/26 13:20:20;;;;;;;9.33;2.93;;;25.90;1.00;;;;;;5087187;28;20402;-78
2022/10/26 13:22:46;;;;;;;10.57;3.30;;;25.50;1.00;;;;;;5081121;28;20456;-78
2022/10/26 13:25:27;;;;;;;7.63;3.20;;;25.20;1.00;;;;;;5086675;28;20182;-77
2022/10/26 13:28:25;;;;;;;7.70;3.23;;;25.00;1.00;;;;;;5076678;28;20865;-78
2022/10/26 13:30:51;;;;;;;12.00;3.17;;;25.00;1.00;;;;;;5065770;28;20462;-80
2022/10/26 13:33:20;;;;;;;11.80;3.20;;;25.20;1.00;;;;;;5073026;28;20441;-77
2022/10/26 13:35:47;;;;;;;12.50;3.13;;;25.40;1.00;;;;;;5083561;28;20167;-80
2022/10/26 13:38:19;;;;;;;5.40;2.77;;;25.20;1.00;;;;;;5082876;28;20753;-79
2022/10/26 13:40:45;;;;;;;6.83;3.07;;;24.80;1.00;;;;;;5086920;28;20420;-78
2022/10/26 13:43:19;;;;;;;10.87;3.30;;;24.50;1.00;;;;;;5078977;28;20540;-78
2022/10/26 13:46:00;;;;;;;8.60;3.00;;;24.20;1.00;;;;;;5082090;28;20422;-80
2022/10/26 13:48:38;;;;;;;7.77;3.13;;;24.30;1.00;;;;;;5080437;28;20436;-78
2022/10/26 13:51:20;;;;;;;6.50;3.10;;;24.00;1.00;;;;;;5090176;28;20577;-78
2022/10/26 13:53:53;;;;;;;9.47;2.80;;;24.00;1.00;;;;;;5086764;28;20417;-77
2022/10/26 13:56:25;;;;;;;8.63;3.57;;;24.00;1.00;;;;;;5071325;28;20430;-79
2022/10/26 13:59:04;;;;;;;10.53;3.43;;;24.00;1.00;;;;;;5085642;28;20418;-78
2022/10/26 14:01:30;;;;;;;6.30;3.03;;;23.90;1.00;;;;;;5076116;28;20497;-78
2022/10/26 14:03:56;;;;;;;7.23;2.97;;;23.90;1.00;;;;;;5068247;28;20430;-77
2022/10/26 14:06:33;;;;;;;7.90;2.43;;;23.90;1.00;;;;;;5062186;28;20451;-78
2022/10/26 14:09:05;;;;;;;9.97;3.20;;;23.80;1.00;;;;;;5073151;28;20410;-78
2022/10/26 14:11:42;;;;;;;8.30;2.87;;;23.70;1.00;;;;;;5069353;28;20988;-80
2022/10/26 14:14:16;;;;;;;6.30;2.80;;;23.70;1.00;;;;;;5071011;28;20414;-78
2022/10/26 14:16:45;;;;;;;6.90;2.60;;;23.70;1.00;;;;;;5069669;28;20644;-79
2022/10/26 14:19:35;;;;;;;5.97;2.30;;;23.70;1.00;;;;;;5069404;28;20956;-78
2022/10/26 14:22:01;;;;;;;12.47;2.90;;;23.60;1.00;;;;;;5063570;28;21124;-78
2022/10/26 14:24:29;;;;;;;6.67;2.90;;;23.50;1.00;;;;;;5062809;28;20577;-78
2022/10/26 14:26:54;;;;;;;6.47;2.70;;;23.40;1.00;;;;;;5057873;28;20445;-79
2022/10/26 14:29:23;;;;;;;7.60;2.80;;;23.40;1.00;;;;;;5066372;28;20435;-78
2022/10/26 14:31:49;;;;;;;7.37;2.87;;;23.30;1.00;;;;;;5069178;28;20210;-80
2022/10/26 14:34:16;;;;;;;6.20;2.67;;;23.20;1.00;;;;;;5068951;28;20983;-78
2022/10/26 14:37:01;;;;;;;8.30;2.67;;;23.00;1.00;;;;;;5070034;28;20454;-78
2022/10/26 14:39:32;;;;;;;10.67;2.87;;;23.00;1.00;;;;;;5070906;28;20417;-78
2022/10/26 14:42:00;;;;;;;8.80;2.90;;;22.90;1.00;;;;;;5060763;28;20438;-79
2022/10/26 14:44:28;;;;;;;5.47;2.90;;;23.00;1.00;;;;;;5056858;28;20502;-79
2022/10/26 14:46:53;;;;;;;11.30;3.17;;;22.70;1.00;;;;;;5071264;28;20453;-81
2022/10/26 14:49:25;;;;;;;5.77;2.90;;;22.60;1.00;;;;;;5071764;28;20930;-81
2022/10/26 14:51:58;;;;;;;8.70;3.17;;;22.50;1.00;;;;;;5067314;28;20246;-77
2022/10/26 14:54:26;;;;;;;11.27;2.90;;;22.40;1.00;;;;;;5065916;28;20429;-80
2022/10/26 14:56:52;;;;;;;7.43;3.00;;;22.40;1.00;;;;;;5066285;28;20481;-79
2022/10/26 14:59:25;;;;;;;8.10;3.27;;;22.30;1.00;;;;;;5072029;28;20414;-77
2022/10/26 15:02:01;;;;;;;9.13;3.30;;;22.60;1.00;;;;;;5062084;28;20262;-77
2022/10/26 15:04:38;;;;;;;6.60;3.13;;;22.20;1.00;;;;;;5067423;28;20422;-80
2022/10/26 15:07:11;;;;;;;5.60;3.10;;;22.20;1.00;;;;;;5051936;28;20408;-78
2022/10/26 15:09:38;;;;;;;8.80;3.30;;;22.10;1.00;;;;;;5069141;28;20429;-77
2022/10/26 15:12:04;;;;;;;5.80;2.60;;;21.90;1.00;;;;;;5069019;28;20459;-77
2022/10/26 15:14:30;;;;;;;8.63;3.03;;;21.90;1.00;;;;;;5067683;28;20491;-79
2022/10/26 15:16:57;;;;;;;7.10;2.60;;;21.90;1.00;;;;;;5052968;28;20205;-77
2022/10/26 15:19:24;;;;;;;12.47;3.37;;;21.80;1.00;;;;;;5069027;28;20881;-77
2022/10/26 15:21:51;;;;;;;9.17;3.23;;;21.80;1.00;;;;;;5065574;28;20486;-78
2022/10/26 15:24:19;;;;;;;8.90;3.27;;;21.80;1.00;;;;;;5068392;28;20488;-77
2022/10/26 15:26:45;;;;;;;13.63;3.13;;;21.90;1.00;;;;;;5068683;28;20432;-77
2022/10/26 15:29:56;;;;;;;11.43;3.03;;;21.70;1.00;;;;;;5071363;28;20493;-77
2022/10/26 15:32:32;;;;;;;6.20;2.90;;;21.60;1.00;;;;;;5062131;28;20461;-76
2022/10/26 15:35:10;;;;;;;7.93;3.17;;;21.60;1.00;;;;;;5069006;28;20419;-77
2022/10/26 15:37:35;;;;;;;9.40;2.90;;;21.60;1.00;;;;;;5067569;28;20443;-79
2022/10/26 15:40:01;;;;;;;8.27;3.17;;;21.50;1.00;;;;;;5067152;28;20465;-78
2022/10/26 15:42:27;;;;;;;8.20;3.13;;;21.50;1.00;;;;;;5064294;28;20201;-78
2022/10/26 15:44:53;;;;;;;6.63;2.80;;;21.40;1.00;;;;;;5070833;28;20247;-78
2022/10/26 15:47:19;;;;;;;10.67;3.37;;;21.30;1.00;;;;;;5067516;28;20540;-78
2022/10/26 15:49:45;;;;;;;9.37;3.50;;;21.30;1.00;;;;;;5066080;28;20598;-76
2022/10/26 15:52:11;;;;;;;9.90;3.30;;;21.20;1.00;;;;;;5064742;28;20869;-79
2022/10/26 15:54:37;;;;;;;10.77;3.30;;;21.20;1.00;;;;;;5067965;28;20450;-77
2022/10/26 15:57:02;;;;;;;7.40;3.23;;;21.00;1.00;;;;;;5054897;28;20581;-77
2022/10/26 15:59:28;;;;;;;11.40;3.63;;;21.00;1.00;;;;;;5069742;28;20175;-79
2022/10/26 16:01:53;;;;;;;11.33;3.97;;;20.90;1.00;;;;;;5066423;28;20196;-81
2022/10/26 16:04:19;;;;;;;7.60;3.50;;;20.80;1.00;;;;;;5065735;28;20173;-78
2022/10/26 16:06:45;;;;;;;6.50;3.37;;;20.70;1.00;;;;;;5068996;28;20181;-78
2022/10/26 16:09:15;;;;;;;6.30;3.30;;;20.60;1.00;;;;;;5064450;28;20173;-78
2022/10/26 16:11:42;;;;;;;17.97;3.50;;;20.50;1.00;;;;;;5067499;28;20208;-77
2022/10/26 16:14:09;;;;;;;8.93;3.10;;;20.40;1.00;;;;;;5061878;28;20575;-77
2022/10/26 16:16:35;;;;;;;6.80;3.23;;;20.30;1.00;;;;;;5066165;28;20416;-77
2022/10/26 16:19:00;;;;;;;8.20;3.20;;;20.20;1.00;;;;;;5065956;28;20888;-79
2022/10/26 16:21:26;;;;;;;8.20;3.90;;;20.10;1.00;;;;;;5065100;28;20196;-77
2022/10/26 16:23:53;;;;;;;7.63;3.20;;;20.00;1.00;;;;;;5066267;28;20202;-79
2022/10/26 16:26:20;;;;;;;8.97;3.70;;;20.10;1.00;;;;;;5059621;28;20181;-80
2022/10/26 16:28:45;;;;;;;5.47;3.20;;;20.20;1.00;;;;;;5059253;28;20443;-81
2022/10/26 16:31:14;;;;;;;6.50;3.50;;;20.10;1.00;;;;;;5072544;28;20463;-80
2022/10/26 16:33:40;;;;;;;11.37;3.70;;;20.00;1.00;;;;;;5079882;28;20643;-81
2022/10/26 16:36:06;;;;;;;11.23;3.70;;;19.80;1.00;;;;;;5071880;28;20475;-79
2022/10/26 16:38:32;;;;;;;9.40;3.60;;;19.60;1.00;;;;;;5061229;28;20532;-77
2022/10/26 16:41:06;;;;;;;8.13;4.43;;;19.50;1.00;;;;;;5058034;28;20208;-77
2022/10/26 16:43:34;;;;;;;10.30;4.63;;;19.30;1.00;;;;;;5064665;28;20638;-76
2022/10/26 16:46:05;;;;;;;10.03;4.80;;;19.10;1.00;;;;;;5066646;28;20442;-77
2022/10/26 16:48:31;;;;;;;12.30;5.10;;;19.00;1.00;;;;;;5063344;28;20414;-77
2022/10/26 16:50:56;;;;;;;9.17;4.57;;;18.90;1.00;;;;;;5067548;28;20472;-79
2022/10/26 16:53:22;;;;;;;10.23;4.40;;;18.70;1.00;;;;;;5065656;28;20201;-75
2022/10/26 16:55:48;;;;;;;8.53;5.10;;;18.70;1.00;;;;;;5058591;28;20243;-75
2022/10/26 16:58:13;;;;;;;15.40;5.13;;;18.90;1.00;;;;;;5067830;28;20430;-76
2022/10/26 17:00:39;;;;;;;10.10;4.90;;;18.40;1.00;;;;;;5065262;28;20196;-76
2022/10/26 17:03:05;;;;;;;8.82;4.90;;;18.30;1.00;;;;;;5062979;28;20451;-75
2022/10/26 17:05:30;;;;;;;16.33;5.10;;;19.10;1.00;;;;;;5058318;28;20191;-75
2022/10/26 17:07:56;;;;;;;14.10;4.47;;;18.20;1.00;;;;;;5068290;28;20210;-77
2022/10/26 17:10:21;;;;;;;9.27;4.37;;;18.10;1.00;;;;;;5061550;28;20232;-77
2022/10/26 17:12:47;;;;;;;16.47;4.70;;;18.00;1.00;;;;;;5067619;28;20287;-74
2022/10/26 17:15:12;;;;;;;9.30;4.40;;;17.90;1.00;;;;;;5061890;28;20176;-77
2022/10/26 17:17:38;;;;;;;7.50;4.00;;;17.90;1.00;;;;;;5069528;28;20176;-76
2022/10/26 17:20:04;;;;;;;14.60;4.80;;;17.80;1.00;;;;;;5062537;28;20267;-76
2022/10/26 17:22:30;;;;;;;7.93;3.73;;;17.80;1.00;;;;;;5057460;28;20216;-76
2022/10/26 17:24:55;;;;;;;10.97;4.90;;;17.70;1.00;;;;;;5068298;28;20925;-76
2022/10/26 17:27:21;;;;;;;15.60;4.63;;;17.60;1.00;;;;;;5062694;28;20185;-77
2022/10/26 17:29:47;;;;;;;11.63;4.90;;;17.50;1.00;;;;;;5070048;28;20326;-76
2022/10/26 17:32:16;;;;;;;13.73;4.90;;;17.40;1.00;;;;;;5064743;28;20446;-77
2022/10/26 17:34:42;;;;;;;9.30;4.47;;;17.40;1.00;;;;;;5064942;28;20180;-76
2022/10/26 17:37:07;;;;;;;8.97;4.03;;;17.30;1.00;;;;;;5061177;28;20422;-76
2022/10/26 17:39:33;;;;;;;6.23;3.97;;;17.30;1.00;;;;;;5073201;28;20643;-77
2022/10/26 17:41:58;;;;;;;7.00;3.80;;;17.20;1.00;;;;;;5066567;28;20188;-76
2022/10/26 17:44:24;;;;;;;7.43;3.80;;;17.20;1.00;;;;;;5072226;28;20175;-76
2022/10/26 17:46:49;;;;;;;11.53;3.53;;;17.10;1.00;;;;;;5068621;28;20660;-76
2022/10/26 17:49:15;;;;;;;8.17;4.17;;;17.10;1.00;;;;;;5069889;28;20596;-76
2022/10/26 17:51:41;;;;;;;10.70;4.20;;;17.40;1.00;;;;;;5066641;28;20306;-77
2022/10/26 17:54:06;;;;;;;11.83;5.00;;;17.00;1.00;;;;;;5072829;28;20165;-76
2022/10/26 17:56:33;;;;;;;9.57;4.43;;;16.90;1.00;;;;;;5067582;28;20253;-77
2022/10/26 17:59:01;;;;;;;7.07;3.67;;;16.90;1.00;;;;;;5072276;28;20176;-76
2022/10/26 18:01:27;;;;;;;13.93;8.17;;;16.90;1.00;;;;;;5068220;28;20449;-75
2022/10/26 18:03:53;;;;;;;12.37;5.80;;;16.80;1.00;;;;;;5068318;28;20437;-76
2022/10/26 18:06:20;;;;;;;13.73;6.23;;;16.70;1.00;;;;;;5068843;28;20434;-76
2022/10/26 18:08:46;;;;;;;11.80;5.50;;;16.70;1.00;;;;;;5072459;28;20445;-76
2022/10/26 18:11:22;;;;;;;12.07;5.00;;;16.60;1.00;;;;;;5067101;28;20472;-76
2022/10/26 18:13:48;;;;;;;18.07;5.33;;;16.70;1.00;;;;;;5067953;28;20177;-75
2022/10/26 18:16:22;;;;;;;11.60;4.73;;;16.60;1.00;;;;;;5073063;28;20460;-76
2022/10/26 18:18:53;;;;;;;13.30;5.50;;;16.60;1.00;;;;;;5067553;28;20210;-77
2022/10/26 18:21:19;;;;;;;10.00;4.83;;;16.40;1.00;;;;;;5067948;28;20491;-74
2022/10/26 18:23:45;;;;;;;8.57;5.70;;;16.40;1.00;;;;;;5069709;28;20418;-74
2022/10/26 18:26:22;;;;;;;9.57;5.40;;;16.40;1.00;;;;;;5066283;28;20465;-75
2022/10/26 18:28:48;;;;;;;21.37;7.17;;;16.30;1.00;;;;;;5067958;28;21068;-77
2022/10/26 18:31:16;;;;;;;11.20;6.30;;;16.40;1.00;;;;;;5068415;28;20459;-76
2022/10/26 18:33:42;;;;;;;16.60;5.73;;;16.40;1.00;;;;;;5068702;28;20509;-77
2022/10/26 18:36:09;;;;;;;13.73;6.17;;;16.40;1.00;;;;;;5070973;28;20488;-76
2022/10/26 18:38:35;;;;;;;11.23;5.70;;;16.30;1.00;;;;;;5066808;28;20180;-77
2022/10/26 18:41:01;;;;;;;11.40;7.93;;;16.30;1.00;;;;;;5068153;28;20497;-76
2022/10/26 18:43:28;;;;;;;21.70;10.53;;;16.30;1.00;;;;;;5062100;28;20438;-74
2022/10/26 18:46:14;;;;;;;13.30;9.27;;;16.20;1.00;;;;;;5072264;28;20429;-76
2022/10/26 18:48:40;;;;;;;23.60;8.90;;;16.20;1.00;;;;;;5068433;28;20430;-75
2022/10/26 18:51:16;;;;;;;15.10;7.77;;;16.10;1.00;;;;;;5070612;28;20462;-76
2022/10/26 18:53:43;;;;;;;19.73;8.70;;;16.10;1.00;;;;;;5060747;28;20422;-76
2022/10/26 18:56:12;;;;;;;14.63;7.57;;;16.10;1.00;;;;;;5064806;28;20806;-75
2022/10/26 18:58:40;;;;;;;12.20;6.90;;;16.00;1.00;;;;;;5066107;28;20626;-77
2022/10/26 19:01:12;;;;;;;11.77;6.90;;;15.90;1.00;;;;;;5065637;28;20431;-75
2022/10/26 19:03:39;;;;;;;16.23;7.23;;;15.90;1.00;;;;;;5071653;28;20434;-75
2022/10/26 19:06:19;;;;;;;13.53;6.67;;;15.80;1.00;;;;;;5066413;28;20436;-75
2022/10/26 19:08:45;;;;;;;9.10;5.33;;;15.80;1.00;;;;;;5069971;28;20509;-77
2022/10/26 19:11:13;;;;;;;13.20;5.30;;;15.70;1.00;;;;;;5064066;28;20462;-76
2022/10/26 19:13:39;;;;;;;9.93;6.10;;;15.70;1.00;;;;;;5058873;28;20701;-76
2022/10/26 19:16:07;;;;;;;6.80;4.97;;;15.70;1.00;;;;;;5070073;28;20426;-76
2022/10/26 19:18:33;;;;;;;12.03;5.60;;;15.60;1.00;;;;;;5067573;28;20459;-76
2022/10/26 19:21:01;;;;;;;11.13;5.47;;;15.60;1.00;;;;;;5065802;28;20913;-76
2022/10/26 19:23:34;;;;;;;11.20;5.40;;;15.50;1.00;;;;;;5077821;28;20176;-76
2022/10/26 19:26:00;;;;;;;9.83;5.80;;;15.50;1.00;;;;;;5066285;28;20949;-76
2022/10/26 19:28:26;;;;;;;13.07;5.20;;;15.40;1.00;;;;;;5071027;28;20475;-76
2022/10/26 19:30:52;;;;;;;14.17;5.90;;;15.40;1.00;;;;;;5065448;28;20940;-76
2022/10/26 19:33:17;;;;;;;9.17;5.10;;;15.30;1.00;;;;;;5061933;28;20455;-78
2022/10/26 19:35:43;;;;;;;15.93;5.50;;;15.30;1.00;;;;;;5062860;28;20192;-76
2022/10/26 19:38:08;;;;;;;12.73;5.03;;;15.30;1.00;;;;;;5069720;28;20172;-77
2022/10/26 19:40:34;;;;;;;10.57;5.23;;;15.30;1.00;;;;;;5071635;28;20578;-76
2022/10/26 19:42:59;;;;;;;14.63;5.70;;;15.20;1.20;;;;;;5067303;28;20227;-76
2022/10/26 19:45:25;;;;;;;10.00;5.03;;;15.20;1.00;;;;;;5074521;28;20180;-76
2022/10/26 19:47:51;;;;;;;12.90;5.73;;;15.10;2.80;;;;;;5070482;28;20620;-76
2022/10/26 19:50:16;;;;;;;11.40;6.17;;;15.10;4.00;;;;;;5067864;28;20258;-76
2022/10/26 19:52:42;;;;;;;9.97;5.60;;;15.00;4.90;;;;;;5065914;28;20216;-76
2022/10/26 19:55:08;;;;;;;11.10;6.00;;;15.00;6.50;;;;;;5069572;28;20263;-76
2022/10/26 19:57:34;;;;;;;15.23;7.43;;;15.00;7.40;;;;;;5070431;28;20611;-76
2022/10/26 19:59:59;;;;;;;10.23;6.30;;;15.00;9.20;;;;;;5067609;28;20453;-76
2022/10/26 20:02:25;;;;;;;14.47;4.83;;;15.00;5.90;;;;;;5066309;28;20203;-76
2022/10/26 20:04:50;;;;;;;15.60;5.00;;;16.30;7.30;;;;;;5068914;28;20850;-76
2022/10/26 20:07:16;;;;;;;12.53;4.90;;;14.80;10.10;;;;;;5070511;28;20199;-76
2022/10/26 20:09:42;;;;;;;10.17;4.60;;;14.80;10.70;;;;;;5067448;28;20245;-76
2022/10/26 20:12:12;;;;;;;12.87;5.40;;;14.70;9.80;;;;;;5072477;28;20200;-77
2022/10/26 20:14:38;;;;;;;10.37;4.73;;;14.70;10.90;;;;;;5064397;28;20638;-75
2022/10/26 20:17:04;;;;;;;11.20;4.73;;;14.70;10.90;;;;;;5067035;28;20427;-76
2022/10/26 20:19:30;;;;;;;10.60;4.80;;;14.70;10.40;;;;;;5069241;28;20218;-76
2022/10/26 20:21:55;;;;;;;10.50;5.30;;;14.60;10.50;;;;;;5068196;28;21019;-74
2022/10/26 20:24:21;;;;;;;8.87;4.77;;;14.70;8.50;;;;;;5069905;28;20200;-75
2022/10/26 20:26:46;;;;;;;11.10;5.87;;;14.60;8.10;;;;;;5067758;28;20594;-76
2022/10/26 20:29:12;;;;;;;13.23;5.20;;;14.60;5.90;;;;;;5063849;28;20567;-75
2022/10/26 20:31:37;;;;;;;9.67;5.10;;;14.50;5.70;;;;;;5068864;28;20283;-76
2022/10/26 20:34:03;;;;;;;10.40;5.50;;;14.50;6.90;;;;;;5059844;28;20329;-76
2022/10/26 20:36:29;;;;;;;9.53;5.30;;;14.50;8.30;;;;;;5069497;28;20764;-75
2022/10/26 20:38:54;;;;;;;8.77;5.60;;;14.50;9.80;;;;;;5061668;28;20259;-76
2022/10/26 20:41:20;;;;;;;12.43;5.70;;;14.40;7.90;;;;;;5072475;28;20472;-76
2022/10/26 20:43:46;;;;;;;11.63;5.67;;;14.40;9.60;;;;;;5067320;28;20558;-76
2022/10/26 20:46:22;;;;;;;13.83;6.90;;;14.40;11.90;;;;;;5064286;28;20172;-75
2022/10/26 20:48:49;;;;;;;10.60;5.30;;;14.30;11.50;;;;;;5069271;28;20414;-76
2022/10/26 20:51:37;;;;;;;10.37;5.03;;;14.30;9.80;;;;;;5063446;28;20541;-73
2022/10/26 20:54:22;;;;;;;10.10;4.70;;;14.30;11.70;;;;;;5061870;28;20480;-75
2022/10/26 20:56:49;;;;;;;8.83;5.27;;;14.20;10.60;;;;;;5069236;28;20422;-74
2022/10/26 20:59:39;;;;;;;8.43;4.70;;;14.20;12.10;;;;;;5066666;28;20429;-76
2022/10/26 21:02:08;;;;;;;12.50;4.17;;;14.20;9.80;;;;;;5049582;28;20419;-76
2022/10/26 21:04:34;;;;;;;13.50;5.13;;;14.10;8.80;;;;;;5063602;28;20537;-75
2022/10/26 21:06:59;;;;;;;15.33;5.10;;;14.10;11.40;;;;;;5072422;28;20426;-75
2022/10/26 21:09:25;;;;;;;12.33;5.27;;;14.00;12.40;;;;;;5059011;28;20279;-76
2022/10/26 21:11:51;;;;;;;14.67;5.10;;;13.90;15.70;;;;;;5067705;28;20226;-75
2022/10/26 21:14:17;;;;;;;10.07;5.13;;;13.90;17.10;;;;;;5068016;28;20217;-75
2022/10/26 21:16:42;;;;;;;13.60;5.13;;;13.90;14.80;;;;;;5066420;28;20520;-76
2022/10/26 21:19:08;;;;;;;11.50;4.77;;;13.80;13.30;;;;;;5066008;28;20270;-75
2022/10/26 21:21:33;;;;;;;17.63;5.33;;;13.80;14.20;;;;;;5073269;28;20268;-76
2022/10/26 21:23:59;;;;;;;10.20;4.53;;;13.70;15.30;;;;;;5070854;28;20177;-76
2022/10/26 21:26:24;;;;;;;9.97;4.60;;;13.70;14.40;;;;;;5072988;28;20180;-75
2022/10/26 21:28:50;;;;;;;12.33;4.60;;;13.70;13.20;;;;;;5067780;28;20181;-76
2022/10/26 21:31:17;;;;;;;10.40;5.10;;;13.70;10.70;;;;;;5072339;28;20227;-76
2022/10/26 21:33:44;;;;;;;12.37;4.80;;;13.70;12.50;;;;;;5068639;28;20176;-74
2022/10/26 21:36:11;;;;;;;14.50;4.60;;;13.60;11.20;;;;;;5064348;28;20800;-75
2022/10/26 21:38:37;;;;;;;9.67;5.47;;;13.60;11.00;;;;;;5069824;28;20522;-77
2022/10/26 21:41:03;;;;;;;13.77;4.10;;;13.50;9.90;;;;;;5071507;28;20500;-77
2022/10/26 21:43:28;;;;;;;9.13;4.83;;;13.60;11.70;;;;;;5070596;28;20728;-75
2022/10/26 21:45:58;;;;;;;11.47;4.10;;;13.50;15.00;;;;;;5072793;28;20413;-76
2022/10/26 21:48:24;;;;;;;8.37;4.70;;;13.50;16.80;;;;;;5064918;28;20666;-75
2022/10/26 21:50:50;;;;;;;10.27;5.00;;;13.50;16.70;;;;;;5072225;28;20465;-76
2022/10/26 21:53:16;;;;;;;12.77;5.10;;;13.40;18.10;;;;;;5069847;28;20553;-75
2022/10/26 21:55:41;;;;;;;12.70;4.57;;;13.30;20.50;;;;;;5073060;28;20248;-75
2022/10/26 21:58:07;;;;;;;10.23;4.87;;;13.30;20.60;;;;;;5063617;28;20677;-75
2022/10/26 22:00:32;;;;;;;10.03;4.97;;;13.30;18.20;;;;;;5071975;28;20190;-75
2022/10/26 22:02:58;;;;;;;9.53;5.50;;;13.30;18.40;;;;;;5062037;28;20212;-76
2022/10/26 22:05:23;;;;;;;10.10;5.10;;;13.30;19.20;;;;;;5071211;28;20242;-75
2022/10/26 22:07:49;;;;;;;13.53;5.60;;;13.60;20.00;;;;;;5065083;28;20177;-75
2022/10/26 22:10:14;;;;;;;13.40;4.97;;;13.30;21.10;;;;;;5064643;28;20331;-74
2022/10/26 22:12:40;;;;;;;11.47;5.40;;;13.50;15.30;;;;;;5066165;28;20615;-75
2022/10/26 22:15:06;;;;;;;10.23;5.00;;;13.30;15.00;;;;;;5066554;28;20173;-75
2022/10/26 22:17:36;;;;;;;13.63;5.23;;;13.30;16.60;;;;;;5064829;28;20173;-75
2022/10/26 22:20:01;;;;;;;13.30;5.40;;;13.20;15.00;;;;;;5064107;28;20407;-75
2022/10/26 22:22:27;;;;;;;13.90;5.00;;;13.20;13.40;;;;;;5069719;28;20453;-74
2022/10/26 22:24:52;;;;;;;11.47;4.53;;;13.10;14.00;;;;;;5071456;28;20580;-75
2022/10/26 22:27:18;;;;;;;10.97;4.37;;;13.00;21.20;;;;;;5072290;28;20207;-75
2022/10/26 22:29:43;;;;;;;13.70;4.83;;;12.90;23.70;;;;;;5069768;28;20180;-76
2022/10/26 22:32:09;;;;;;;7.63;4.10;;;13.00;24.00;;;;;;5067857;28;20206;-74
2022/10/26 22:34:34;;;;;;;14.03;5.10;;;13.10;25.70;;;;;;5066955;28;20199;-74
2022/10/26 22:37:00;;;;;;;8.80;4.50;;;13.10;20.60;;;;;;5066591;28;20172;-77
2022/10/26 22:39:25;;;;;;;9.90;5.10;;;13.10;21.90;;;;;;5066783;28;20173;-75
2022/10/26 22:41:51;;;;;;;8.97;4.63;;;13.00;22.10;;;;;;5061794;28;20292;-76
2022/10/26 22:44:16;;;;;;;9.23;4.63;;;13.10;20.40;;;;;;5062282;28;20200;-77
2022/10/26 22:46:42;;;;;;;16.90;5.07;;;13.00;23.90;;;;;;5071648;28;20172;-75
2022/10/26 22:49:07;;;;;;;8.63;4.60;;;12.50;23.10;;;;;;5064914;28;20239;-75
2022/10/26 22:51:34;;;;;;;11.70;5.03;;;13.10;21.90;;;;;;5066975;28;20273;-75
2022/10/26 22:54:01;;;;;;;7.43;4.13;;;13.00;21.40;;;;;;5066530;28;20639;-75
2022/10/26 22:56:28;;;;;;;16.80;5.17;;;13.00;19.90;;;;;;5071953;28;20916;-76
2022/10/26 22:58:53;;;;;;;7.97;4.37;;;12.90;21.80;;;;;;5066447;28;20463;-75
2022/10/26 23:01:21;;;;;;;14.33;4.90;;;12.80;22.70;;;;;;5071164;28;20469;-76
2022/10/26 23:03:47;;;;;;;14.57;4.83;;;12.80;23.50;;;;;;5066702;28;20677;-75
2022/10/26 23:06:16;;;;;;;10.27;4.87;;;12.80;21.70;;;;;;5071666;28;20414;-76
2022/10/26 23:08:42;;;;;;;9.43;4.70;;;12.60;24.90;;;;;;5060324;28;20520;-74
2022/10/26 23:11:11;;;;;;;9.13;4.20;;;12.60;24.50;;;;;;5070448;28;20474;-74
2022/10/26 23:13:37;;;;;;;10.37;4.20;;;12.60;26.60;;;;;;5064281;28;20558;-75
2022/10/26 23:16:11;;;;;;;9.30;4.13;;;12.60;21.60;;;;;;5071352;28;20415;-76
2022/10/26 23:18:37;;;;;;;18.33;4.57;;;12.90;21.20;;;;;;5068163;28;20320;-74
2022/10/26 23:21:04;;;;;;;12.83;4.33;;;12.60;17.60;;;;;;5070208;28;20740;-76
2022/10/26 23:23:30;;;;;;;16.83;4.60;;;12.50;19.60;;;;;;5068501;28;20882;-75
2022/10/26 23:26:03;;;;;;;7.30;4.20;;;12.50;17.40;;;;;;5071395;28;20417;-75
2022/10/26 23:28:30;;;;;;;11.90;4.20;;;12.50;19.30;;;;;;5061041;28;20188;-74
2022/10/26 23:30:55;;;;;;;9.73;4.10;;;12.50;20.40;;;;;;5065869;28;20519;-75
2022/10/26 23:33:21;;;;;;;7.20;4.00;;;12.50;19.70;;;;;;5063254;28;20770;-76
2022/10/26 23:35:48;;;;;;;9.13;4.63;;;12.60;21.40;;;;;;5062477;28;20181;-75
2022/10/26 23:38:13;;;;;;;7.40;4.40;;;13.10;22.20;;;;;;5069656;28;20168;-75
2022/10/26 23:40:39;;;;;;;6.87;4.20;;;12.60;20.90;;;;;;5068545;28;20786;-76
2022/10/26 23:43:04;;;;;;;15.87;4.37;;;12.50;21.10;;;;;;5064945;28;20967;-74
2022/10/26 23:45:30;;;;;;;8.63;4.43;;;12.50;21.90;;;;;;5064464;28;20180;-76
2022/10/26 23:47:55;;;;;;;8.60;4.83;;;12.50;21.00;;;;;;5062489;28;20180;-75
2022/10/26 23:50:21;;;;;;;10.13;4.50;;;12.50;17.80;;;;;;5062629;28;20209;-76
2022/10/26 23:52:47;;;;;;;8.20;4.30;;;12.50;16.60;;;;;;5068982;28;20196;-75
2022/10/26 23:55:14;;;;;;;11.07;5.17;;;12.40;21.20;;;;;;5068442;28;20179;-75
2022/10/26 23:57:39;;;;;;;13.13;4.63;;;12.30;22.40;;;;;;5070405;28;20743;-75
